sensor_id;sensor_type;location;lat;lon;timestamp;P1;durP1;ratioP1;P2;durP2;ratioP2
55362;SDS011;41244;49.242;9.060;2023-06-10T00:02:09;7.50;;;6.68;;
55362;SDS011;41244;49.242;9.060;2023-06-10T00:04:35;7.40;;;6.70;;
55362;SDS011;41244;49.242;9.060;2023-06-10T00:07:02;8.50;;;6.55;;
55362;SDS011;41244;49.242;9.060;2023-06-10T00:09:33;6.70;;;6.00;;
55362;SDS011;41244;49.242;9.060;2023-06-10T00:12:06;6.95;;;6.38;;
55362;SDS011;41244;49.242;9.060;2023-06-10T00:14:35;8.68;;;6.40;;
55362;SDS011;41244;49.242;9.060;2023-06-10T00:17:03;8.00;;;6.50;;
55362;SDS011;41244;49.242;9.060;2023-06-10T00:19:29;14.20;;;7.25;;
55362;SDS011;41244;49.242;9.060;2023-06-10T00:21:55;6.82;;;6.13;;
55362;SDS011;41244;49.242;9.060;2023-06-10T00:24:22;7.03;;;6.35;;
55362;SDS011;41244;49.242;9.060;2023-06-10T00:26:48;7.75;;;6.95;;
55362;SDS011;41244;49.242;9.060;2023-06-10T00:29:14;7.30;;;6.70;;
55362;SDS011;41244;49.242;9.060;2023-06-10T00:31:40;8.65;;;7.13;;
55362;SDS011;41244;49.242;9.060;2023-06-10T00:34:06;8.32;;;6.80;;
55362;SDS011;41244;49.242;9.060;2023-06-10T00:36:33;7.28;;;6.57;;
55362;SDS011;41244;49.242;9.060;2023-06-10T00:39:00;6.70;;;5.95;;
55362;SDS011;41244;49.242;9.060;2023-06-10T00:41:26;7.25;;;6.28;;
55362;SDS011;41244;49.242;9.060;2023-06-10T00:43:52;7.35;;;6.60;;
55362;SDS011;41244;49.242;9.060;2023-06-10T00:46:18;7.28;;;6.65;;
55362;SDS011;41244;49.242;9.060;2023-06-10T00:48:44;7.05;;;6.13;;
55362;SDS011;41244;49.242;9.060;2023-06-10T00:51:10;6.75;;;6.15;;
55362;SDS011;41244;49.242;9.060;2023-06-10T00:53:37;7.40;;;6.70;;
55362;SDS011;41244;49.242;9.060;2023-06-10T00:56:06;9.80;;;6.38;;
55362;SDS011;41244;49.242;9.060;2023-06-10T00:58:32;6.47;;;5.82;;
55362;SDS011;41244;49.242;9.060;2023-06-10T01:00:58;9.45;;;6.43;;
55362;SDS011;41244;49.242;9.060;2023-06-10T01:03:24;6.93;;;6.32;;
55362;SDS011;41244;49.242;9.060;2023-06-10T01:06:00;9.55;;;6.65;;
55362;SDS011;41244;49.242;9.060;2023-06-10T01:08:55;6.82;;;6.13;;
55362;SDS011;41244;49.242;9.060;2023-06-10T01:11:51;7.30;;;6.60;;
55362;SDS011;41244;49.242;9.060;2023-06-10T01:14:25;7.20;;;5.85;;
55362;SDS011;41244;49.242;9.060;2023-06-10T01:16:51;6.93;;;6.07;;
55362;SDS011;41244;49.242;9.060;2023-06-10T01:19:18;7.53;;;6.82;;
55362;SDS011;41244;49.242;9.060;2023-06-10T01:21:44;7.18;;;6.47;;
55362;SDS011;41244;49.242;9.060;2023-06-10T01:24:13;6.95;;;6.32;;
55362;SDS011;41244;49.242;9.060;2023-06-10T01:26:43;8.68;;;6.80;;
55362;SDS011;41244;49.242;9.060;2023-06-10T01:29:11;6.82;;;6.22;;
55362;SDS011;41244;49.242;9.060;2023-06-10T01:32:14;8.35;;;7.05;;
55362;SDS011;41244;49.242;9.060;2023-06-10T01:34:44;10.63;;;6.45;;
55362;SDS011;41244;49.242;9.060;2023-06-10T01:37:12;7.78;;;6.22;;
55362;SDS011;41244;49.242;9.060;2023-06-10T01:39:39;7.40;;;6.70;;
55362;SDS011;41244;49.242;9.060;2023-06-10T01:42:05;7.78;;;6.60;;
55362;SDS011;41244;49.242;9.060;2023-06-10T01:44:31;7.95;;;6.75;;
55362;SDS011;41244;49.242;9.060;2023-06-10T01:46:57;8.85;;;6.78;;
55362;SDS011;41244;49.242;9.060;2023-06-10T01:49:23;7.47;;;6.65;;
55362;SDS011;41244;49.242;9.060;2023-06-10T01:51:49;6.65;;;6.05;;
55362;SDS011;41244;49.242;9.060;2023-06-10T01:54:14;7.32;;;6.63;;
55362;SDS011;41244;49.242;9.060;2023-06-10T01:56:41;12.65;;;6.57;;
55362;SDS011;41244;49.242;9.060;2023-06-10T01:59:07;7.32;;;6.63;;
55362;SDS011;41244;49.242;9.060;2023-06-10T02:01:33;7.10;;;6.43;;
55362;SDS011;41244;49.242;9.060;2023-06-10T02:03:58;7.60;;;6.90;;
55362;SDS011;41244;49.242;9.060;2023-06-10T02:06:24;7.40;;;6.35;;
55362;SDS011;41244;49.242;9.060;2023-06-10T02:08:50;7.20;;;6.50;;
55362;SDS011;41244;49.242;9.060;2023-06-10T02:11:16;7.63;;;6.82;;
55362;SDS011;41244;49.242;9.060;2023-06-10T02:13:41;9.95;;;7.47;;
55362;SDS011;41244;49.242;9.060;2023-06-10T02:16:08;8.48;;;7.25;;
55362;SDS011;41244;49.242;9.060;2023-06-10T02:18:37;8.00;;;7.20;;
55362;SDS011;41244;49.242;9.060;2023-06-10T02:21:05;7.78;;;7.07;;
55362;SDS011;41244;49.242;9.060;2023-06-10T02:23:32;8.07;;;7.00;;
55362;SDS011;41244;49.242;9.060;2023-06-10T02:25:57;8.35;;;7.05;;
55362;SDS011;41244;49.242;9.060;2023-06-10T02:28:23;8.40;;;7.50;;
55362;SDS011;41244;49.242;9.060;2023-06-10T02:30:50;9.02;;;7.28;;
55362;SDS011;41244;49.242;9.060;2023-06-10T02:33:16;9.45;;;7.35;;
55362;SDS011;41244;49.242;9.060;2023-06-10T02:35:42;7.85;;;6.93;;
55362;SDS011;41244;49.242;9.060;2023-06-10T02:38:08;8.45;;;7.65;;
55362;SDS011;41244;49.242;9.060;2023-06-10T02:40:34;8.32;;;7.32;;
55362;SDS011;41244;49.242;9.060;2023-06-10T02:43:00;8.10;;;7.40;;
55362;SDS011;41244;49.242;9.060;2023-06-10T02:45:25;9.73;;;7.80;;
55362;SDS011;41244;49.242;9.060;2023-06-10T02:47:51;8.75;;;7.72;;
55362;SDS011;41244;49.242;9.060;2023-06-10T02:50:17;7.93;;;7.18;;
55362;SDS011;41244;49.242;9.060;2023-06-10T02:52:43;7.88;;;7.10;;
55362;SDS011;41244;49.242;9.060;2023-06-10T02:55:09;10.25;;;7.93;;
55362;SDS011;41244;49.242;9.060;2023-06-10T02:57:35;8.85;;;7.70;;
55362;SDS011;41244;49.242;9.060;2023-06-10T03:00:01;8.50;;;7.68;;
55362;SDS011;41244;49.242;9.060;2023-06-10T03:02:30;10.30;;;7.97;;
55362;SDS011;41244;49.242;9.060;2023-06-10T03:04:56;9.52;;;8.63;;
55362;SDS011;41244;49.242;9.060;2023-06-10T03:07:22;8.30;;;7.50;;
55362;SDS011;41244;49.242;9.060;2023-06-10T03:09:48;8.80;;;8.00;;
55362;SDS011;41244;49.242;9.060;2023-06-10T03:12:15;8.80;;;7.90;;
55362;SDS011;41244;49.242;9.060;2023-06-10T03:14:41;8.57;;;7.57;;
55362;SDS011;41244;49.242;9.060;2023-06-10T03:17:07;8.60;;;7.72;;
55362;SDS011;41244;49.242;9.060;2023-06-10T03:19:35;10.60;;;8.13;;
55362;SDS011;41244;49.242;9.060;2023-06-10T03:22:10;8.80;;;7.90;;
55362;SDS011;41244;49.242;9.060;2023-06-10T03:24:40;8.38;;;7.65;;
55362;SDS011;41244;49.242;9.060;2023-06-10T03:27:09;8.32;;;7.53;;
55362;SDS011;41244;49.242;9.060;2023-06-10T03:29:36;8.05;;;7.35;;
55362;SDS011;41244;49.242;9.060;2023-06-10T03:32:02;8.50;;;7.70;;
55362;SDS011;41244;49.242;9.060;2023-06-10T03:34:28;12.88;;;8.60;;
55362;SDS011;41244;49.242;9.060;2023-06-10T03:36:55;8.77;;;7.88;;
55362;SDS011;41244;49.242;9.060;2023-06-10T03:39:22;8.68;;;7.50;;
55362;SDS011;41244;49.242;9.060;2023-06-10T03:41:48;9.07;;;8.18;;
55362;SDS011;41244;49.242;9.060;2023-06-10T03:44:15;9.70;;;8.80;;
55362;SDS011;41244;49.242;9.060;2023-06-10T03:46:40;8.82;;;7.93;;
55362;SDS011;41244;49.242;9.060;2023-06-10T03:49:06;10.23;;;8.38;;
55362;SDS011;41244;49.242;9.060;2023-06-10T03:51:32;9.75;;;8.95;;
55362;SDS011;41244;49.242;9.060;2023-06-10T03:53:59;9.68;;;8.75;;
55362;SDS011;41244;49.242;9.060;2023-06-10T03:56:24;11.38;;;9.73;;
55362;SDS011;41244;49.242;9.060;2023-06-10T03:58:50;8.70;;;7.68;;
55362;SDS011;41244;49.242;9.060;2023-06-10T04:01:16;9.38;;;8.43;;
55362;SDS011;41244;49.242;9.060;2023-06-10T04:03:43;9.23;;;8.43;;
55362;SDS011;41244;49.242;9.060;2023-06-10T04:06:09;10.20;;;8.80;;
55362;SDS011;41244;49.242;9.060;2023-06-10T04:08:35;9.35;;;8.25;;
55362;SDS011;41244;49.242;9.060;2023-06-10T04:11:01;9.60;;;8.63;;
55362;SDS011;41244;49.242;9.060;2023-06-10T04:13:27;9.95;;;8.90;;
55362;SDS011;41244;49.242;9.060;2023-06-10T04:15:53;9.43;;;8.50;;
55362;SDS011;41244;49.242;9.060;2023-06-10T04:18:21;9.38;;;8.48;;
55362;SDS011;41244;49.242;9.060;2023-06-10T04:20:47;9.90;;;8.93;;
55362;SDS011;41244;49.242;9.060;2023-06-10T04:23:13;9.43;;;8.48;;
55362;SDS011;41244;49.242;9.060;2023-06-10T04:25:39;9.13;;;8.30;;
55362;SDS011;41244;49.242;9.060;2023-06-10T04:28:05;9.13;;;8.20;;
55362;SDS011;41244;49.242;9.060;2023-06-10T04:30:30;9.50;;;8.50;;
55362;SDS011;41244;49.242;9.060;2023-06-10T04:32:56;9.85;;;8.82;;
55362;SDS011;41244;49.242;9.060;2023-06-10T04:35:22;9.93;;;8.90;;
55362;SDS011;41244;49.242;9.060;2023-06-10T04:37:48;9.32;;;8.32;;
55362;SDS011;41244;49.242;9.060;2023-06-10T04:40:14;8.95;;;8.10;;
55362;SDS011;41244;49.242;9.060;2023-06-10T04:42:41;9.68;;;8.70;;
55362;SDS011;41244;49.242;9.060;2023-06-10T04:45:07;9.38;;;8.48;;
55362;SDS011;41244;49.242;9.060;2023-06-10T04:47:33;9.82;;;8.70;;
55362;SDS011;41244;49.242;9.060;2023-06-10T04:49:59;9.95;;;8.45;;
55362;SDS011;41244;49.242;9.060;2023-06-10T04:52:26;9.73;;;8.73;;
55362;SDS011;41244;49.242;9.060;2023-06-10T04:54:52;11.40;;;8.60;;
55362;SDS011;41244;49.242;9.060;2023-06-10T04:57:19;9.18;;;8.27;;
55362;SDS011;41244;49.242;9.060;2023-06-10T04:59:45;9.82;;;8.60;;
55362;SDS011;41244;49.242;9.060;2023-06-10T05:02:12;10.45;;;8.43;;
55362;SDS011;41244;49.242;9.060;2023-06-10T05:04:37;8.70;;;7.95;;
55362;SDS011;41244;49.242;9.060;2023-06-10T05:07:03;9.55;;;8.45;;
55362;SDS011;41244;49.242;9.060;2023-06-10T05:09:30;10.13;;;8.32;;
55362;SDS011;41244;49.242;9.060;2023-06-10T05:11:56;9.35;;;8.55;;
55362;SDS011;41244;49.242;9.060;2023-06-10T05:14:22;9.35;;;8.45;;
55362;SDS011;41244;49.242;9.060;2023-06-10T05:16:48;9.07;;;8.20;;
55362;SDS011;41244;49.242;9.060;2023-06-10T05:19:14;10.25;;;8.27;;
55362;SDS011;41244;49.242;9.060;2023-06-10T05:21:41;9.80;;;8.52;;
55362;SDS011;41244;49.242;9.060;2023-06-10T05:24:07;9.23;;;8.25;;
55362;SDS011;41244;49.242;9.060;2023-06-10T05:26:33;9.27;;;8.35;;
55362;SDS011;41244;49.242;9.060;2023-06-10T05:29:02;9.57;;;8.68;;
55362;SDS011;41244;49.242;9.060;2023-06-10T05:31:29;9.55;;;8.55;;
55362;SDS011;41244;49.242;9.060;2023-06-10T05:33:55;10.20;;;8.70;;
55362;SDS011;41244;49.242;9.060;2023-06-10T05:36:20;10.02;;;8.32;;
55362;SDS011;41244;49.242;9.060;2023-06-10T05:38:46;11.43;;;8.27;;
55362;SDS011;41244;49.242;9.060;2023-06-10T05:41:12;8.63;;;7.82;;
55362;SDS011;41244;49.242;9.060;2023-06-10T05:43:38;8.55;;;7.75;;
55362;SDS011;41244;49.242;9.060;2023-06-10T05:46:04;8.75;;;7.95;;
55362;SDS011;41244;49.242;9.060;2023-06-10T05:48:29;8.85;;;7.72;;
55362;SDS011;41244;49.242;9.060;2023-06-10T05:50:55;8.90;;;8.10;;
55362;SDS011;41244;49.242;9.060;2023-06-10T05:53:21;9.07;;;8.00;;
55362;SDS011;41244;49.242;9.060;2023-06-10T05:55:47;8.55;;;7.70;;
55362;SDS011;41244;49.242;9.060;2023-06-10T05:58:14;9.25;;;8.05;;
55362;SDS011;41244;49.242;9.060;2023-06-10T06:00:40;8.95;;;8.10;;
55362;SDS011;41244;49.242;9.060;2023-06-10T06:03:06;8.82;;;8.02;;
55362;SDS011;41244;49.242;9.060;2023-06-10T06:05:33;8.68;;;7.80;;
55362;SDS011;41244;49.242;9.060;2023-06-10T06:08:01;8.68;;;7.78;;
55362;SDS011;41244;49.242;9.060;2023-06-10T06:10:27;9.20;;;8.25;;
55362;SDS011;41244;49.242;9.060;2023-06-10T06:12:53;9.82;;;7.63;;
55362;SDS011;41244;49.242;9.060;2023-06-10T06:15:18;8.73;;;7.93;;
55362;SDS011;41244;49.242;9.060;2023-06-10T06:17:44;8.48;;;7.68;;
55362;SDS011;41244;49.242;9.060;2023-06-10T06:20:10;8.80;;;7.93;;
55362;SDS011;41244;49.242;9.060;2023-06-10T06:22:36;8.70;;;7.90;;
55362;SDS011;41244;49.242;9.060;2023-06-10T06:25:02;9.95;;;7.43;;
55362;SDS011;41244;49.242;9.060;2023-06-10T06:27:28;8.20;;;7.50;;
55362;SDS011;41244;49.242;9.060;2023-06-10T06:29:54;9.02;;;8.00;;
55362;SDS011;41244;49.242;9.060;2023-06-10T06:32:20;9.63;;;8.73;;
55362;SDS011;41244;49.242;9.060;2023-06-10T06:34:47;7.85;;;7.15;;
55362;SDS011;41244;49.242;9.060;2023-06-10T06:37:18;9.77;;;7.50;;
55362;SDS011;41244;49.242;9.060;2023-06-10T06:39:46;11.38;;;10.23;;
55362;SDS011;41244;49.242;9.060;2023-06-10T06:42:12;19.42;;;15.10;;
55362;SDS011;41244;49.242;9.060;2023-06-10T06:44:38;8.52;;;7.70;;
55362;SDS011;41244;49.242;9.060;2023-06-10T06:47:04;11.43;;;10.20;;
55362;SDS011;41244;49.242;9.060;2023-06-10T06:49:30;8.40;;;7.60;;
55362;SDS011;41244;49.242;9.060;2023-06-10T06:51:55;8.65;;;7.82;;
55362;SDS011;41244;49.242;9.060;2023-06-10T06:54:21;9.25;;;7.15;;
55362;SDS011;41244;49.242;9.060;2023-06-10T06:56:47;8.32;;;7.53;;
55362;SDS011;41244;49.242;9.060;2023-06-10T06:59:12;8.75;;;7.88;;
55362;SDS011;41244;49.242;9.060;2023-06-10T07:01:39;9.57;;;7.63;;
55362;SDS011;41244;49.242;9.060;2023-06-10T07:04:04;8.13;;;7.32;;
55362;SDS011;41244;49.242;9.060;2023-06-10T07:06:30;8.18;;;7.47;;
55362;SDS011;41244;49.242;9.060;2023-06-10T07:08:56;9.27;;;7.72;;
55362;SDS011;41244;49.242;9.060;2023-06-10T07:11:22;8.32;;;7.40;;
55362;SDS011;41244;49.242;9.060;2023-06-10T07:13:48;8.95;;;7.60;;
55362;SDS011;41244;49.242;9.060;2023-06-10T07:16:14;7.97;;;7.25;;
55362;SDS011;41244;49.242;9.060;2023-06-10T07:18:40;8.20;;;7.40;;
55362;SDS011;41244;49.242;9.060;2023-06-10T07:21:05;9.65;;;8.00;;
55362;SDS011;41244;49.242;9.060;2023-06-10T07:23:31;8.55;;;7.63;;
55362;SDS011;41244;49.242;9.060;2023-06-10T07:25:57;8.02;;;7.32;;
55362;SDS011;41244;49.242;9.060;2023-06-10T07:28:23;9.60;;;7.43;;
55362;SDS011;41244;49.242;9.060;2023-06-10T07:30:48;8.65;;;7.85;;
55362;SDS011;41244;49.242;9.060;2023-06-10T07:33:14;7.40;;;6.80;;
55362;SDS011;41244;49.242;9.060;2023-06-10T07:35:40;7.90;;;7.20;;
55362;SDS011;41244;49.242;9.060;2023-06-10T07:38:08;9.82;;;6.95;;
55362;SDS011;41244;49.242;9.060;2023-06-10T07:40:33;9.00;;;7.95;;
55362;SDS011;41244;49.242;9.060;2023-06-10T07:42:59;7.18;;;6.55;;
55362;SDS011;41244;49.242;9.060;2023-06-10T07:45:25;7.70;;;7.00;;
55362;SDS011;41244;49.242;9.060;2023-06-10T07:47:51;7.88;;;6.57;;
55362;SDS011;41244;49.242;9.060;2023-06-10T07:50:17;8.77;;;6.82;;
55362;SDS011;41244;49.242;9.060;2023-06-10T07:52:42;7.30;;;6.45;;
55362;SDS011;41244;49.242;9.060;2023-06-10T07:55:08;7.13;;;6.53;;
55362;SDS011;41244;49.242;9.060;2023-06-10T07:57:34;11.77;;;6.65;;
55362;SDS011;41244;49.242;9.060;2023-06-10T08:00:02;7.30;;;6.32;;
55362;SDS011;41244;49.242;9.060;2023-06-10T08:02:29;6.78;;;6.13;;
55362;SDS011;41244;49.242;9.060;2023-06-10T08:04:55;6.45;;;5.95;;
55362;SDS011;41244;49.242;9.060;2023-06-10T08:07:21;6.32;;;5.70;;
55362;SDS011;41244;49.242;9.060;2023-06-10T08:09:47;7.20;;;6.50;;
55362;SDS011;41244;49.242;9.060;2023-06-10T08:12:13;6.50;;;5.90;;
55362;SDS011;41244;49.242;9.060;2023-06-10T08:14:39;9.93;;;7.68;;
55362;SDS011;41244;49.242;9.060;2023-06-10T08:17:04;6.72;;;6.13;;
55362;SDS011;41244;49.242;9.060;2023-06-10T08:19:31;8.05;;;6.32;;
55362;SDS011;41244;49.242;9.060;2023-06-10T08:21:57;6.72;;;6.13;;
55362;SDS011;41244;49.242;9.060;2023-06-10T08:24:22;6.80;;;6.20;;
55362;SDS011;41244;49.242;9.060;2023-06-10T08:26:48;7.50;;;6.10;;
55362;SDS011;41244;49.242;9.060;2023-06-10T08:29:14;8.20;;;6.25;;
55362;SDS011;41244;49.242;9.060;2023-06-10T08:31:43;7.53;;;6.70;;
55362;SDS011;41244;49.242;9.060;2023-06-10T08:34:09;6.75;;;6.18;;
55362;SDS011;41244;49.242;9.060;2023-06-10T08:36:36;7.00;;;6.25;;
55362;SDS011;41244;49.242;9.060;2023-06-10T08:39:02;6.78;;;6.13;;
55362;SDS011;41244;49.242;9.060;2023-06-10T08:41:28;7.40;;;6.18;;
55362;SDS011;41244;49.242;9.060;2023-06-10T08:43:59;7.40;;;5.82;;
55362;SDS011;41244;49.242;9.060;2023-06-10T08:46:47;6.93;;;6.32;;
55362;SDS011;41244;49.242;9.060;2023-06-10T08:49:15;6.85;;;5.95;;
55362;SDS011;41244;49.242;9.060;2023-06-10T08:51:46;6.45;;;5.85;;
55362;SDS011;41244;49.242;9.060;2023-06-10T08:54:17;11.15;;;6.35;;
55362;SDS011;41244;49.242;9.060;2023-06-10T08:56:45;6.57;;;5.85;;
55362;SDS011;41244;49.242;9.060;2023-06-10T08:59:16;6.55;;;6.00;;
55362;SDS011;41244;49.242;9.060;2023-06-10T09:01:42;6.60;;;6.00;;
55362;SDS011;41244;49.242;9.060;2023-06-10T09:04:09;7.25;;;6.55;;
55362;SDS011;41244;49.242;9.060;2023-06-10T09:06:36;6.28;;;5.68;;
55362;SDS011;41244;49.242;9.060;2023-06-10T09:09:03;6.60;;;6.00;;
55362;SDS011;41244;49.242;9.060;2023-06-10T09:11:31;6.85;;;6.15;;
55362;SDS011;41244;49.242;9.060;2023-06-10T09:13:57;6.40;;;5.82;;
55362;SDS011;41244;49.242;9.060;2023-06-10T09:16:23;6.53;;;5.97;;
55362;SDS011;41244;49.242;9.060;2023-06-10T09:18:50;6.65;;;6.05;;
55362;SDS011;41244;49.242;9.060;2023-06-10T09:21:21;6.35;;;5.75;;
55362;SDS011;41244;49.242;9.060;2023-06-10T09:23:48;6.40;;;5.80;;
55362;SDS011;41244;49.242;9.060;2023-06-10T09:26:13;6.30;;;5.70;;
55362;SDS011;41244;49.242;9.060;2023-06-10T09:28:41;7.18;;;5.80;;
55362;SDS011;41244;49.242;9.060;2023-06-10T09:31:11;7.90;;;7.17;;
55362;SDS011;41244;49.242;9.060;2023-06-10T09:33:37;8.10;;;6.07;;
55362;SDS011;41244;49.242;9.060;2023-06-10T09:36:07;6.80;;;6.20;;
55362;SDS011;41244;49.242;9.060;2023-06-10T09:38:33;5.82;;;5.32;;
55362;SDS011;41244;49.242;9.060;2023-06-10T09:41:00;6.10;;;5.60;;
55362;SDS011;41244;49.242;9.060;2023-06-10T09:43:47;7.93;;;6.10;;
55362;SDS011;41244;49.242;9.060;2023-06-10T09:46:14;6.53;;;5.88;;
55362;SDS011;41244;49.242;9.060;2023-06-10T09:48:44;6.70;;;5.47;;
55362;SDS011;41244;49.242;9.060;2023-06-10T09:51:13;6.10;;;5.50;;
55362;SDS011;41244;49.242;9.060;2023-06-10T09:53:40;6.15;;;5.55;;
55362;SDS011;41244;49.242;9.060;2023-06-10T09:56:05;6.28;;;5.30;;
55362;SDS011;41244;49.242;9.060;2023-06-10T09:58:35;6.15;;;5.55;;
55362;SDS011;41244;49.242;9.060;2023-06-10T10:01:06;5.57;;;5.07;;
55362;SDS011;41244;49.242;9.060;2023-06-10T10:03:44;6.53;;;5.40;;
55362;SDS011;41244;49.242;9.060;2023-06-10T10:06:17;6.47;;;5.88;;
55362;SDS011;41244;49.242;9.060;2023-06-10T10:08:44;5.60;;;5.10;;
55362;SDS011;41244;49.242;9.060;2023-06-10T10:11:14;6.50;;;5.10;;
55362;SDS011;41244;49.242;9.060;2023-06-10T10:13:42;5.78;;;5.03;;
55362;SDS011;41244;49.242;9.060;2023-06-10T10:16:20;5.53;;;5.03;;
55362;SDS011;41244;49.242;9.060;2023-06-10T10:19:01;7.60;;;5.15;;
55362;SDS011;41244;49.242;9.060;2023-06-10T10:21:35;5.97;;;5.00;;
55362;SDS011;41244;49.242;9.060;2023-06-10T10:24:21;5.53;;;5.07;;
55362;SDS011;41244;49.242;9.060;2023-06-10T10:26:51;8.02;;;7.22;;
55362;SDS011;41244;49.242;9.060;2023-06-10T10:29:22;6.13;;;5.20;;
55362;SDS011;41244;49.242;9.060;2023-06-10T10:31:57;6.13;;;5.00;;
55362;SDS011;41244;49.242;9.060;2023-06-10T10:34:35;6.00;;;5.15;;
55362;SDS011;41244;49.242;9.060;2023-06-10T10:37:08;5.25;;;4.75;;
55362;SDS011;41244;49.242;9.060;2023-06-10T10:39:34;7.63;;;5.35;;
55362;SDS011;41244;49.242;9.060;2023-06-10T10:42:01;5.53;;;5.03;;
55362;SDS011;41244;49.242;9.060;2023-06-10T10:44:29;5.50;;;5.00;;
55362;SDS011;41244;49.242;9.060;2023-06-10T10:46:55;6.13;;;5.63;;
55362;SDS011;41244;49.242;9.060;2023-06-10T10:49:22;8.27;;;5.50;;
55362;SDS011;41244;49.242;9.060;2023-06-10T10:51:55;6.20;;;5.70;;
55362;SDS011;41244;49.242;9.060;2023-06-10T10:54:31;5.93;;;5.38;;
55362;SDS011;41244;49.242;9.060;2023-06-10T11:02:16;6.40;;;5.80;;
55362;SDS011;41244;49.242;9.060;2023-06-10T11:05:03;5.72;;;5.22;;
55362;SDS011;41244;49.242;9.060;2023-06-10T11:07:31;6.30;;;5.25;;
55362;SDS011;41244;49.242;9.060;2023-06-10T11:09:58;6.68;;;4.88;;
55362;SDS011;41244;49.242;9.060;2023-06-10T11:12:40;5.60;;;4.55;;
55362;SDS011;41244;49.242;9.060;2023-06-10T11:15:19;7.38;;;5.82;;
55362;SDS011;41244;49.242;9.060;2023-06-10T11:18:07;5.82;;;5.22;;
55362;SDS011;41244;49.242;9.060;2023-06-10T11:34:04;6.57;;;5.00;;
55362;SDS011;41244;49.242;9.060;2023-06-10T11:36:32;7.03;;;6.32;;
55362;SDS011;41244;49.242;9.060;2023-06-10T11:39:03;6.28;;;5.43;;
55362;SDS011;41244;49.242;9.060;2023-06-10T11:41:31;5.28;;;4.78;;
55362;SDS011;41244;49.242;9.060;2023-06-10T11:44:07;5.50;;;4.78;;
55362;SDS011;41244;49.242;9.060;2023-06-10T11:46:35;5.40;;;4.90;;
55362;SDS011;41244;49.242;9.060;2023-06-10T11:49:01;5.78;;;5.13;;
55362;SDS011;41244;49.242;9.060;2023-06-10T11:51:28;6.55;;;5.05;;
55362;SDS011;41244;49.242;9.060;2023-06-10T11:54:00;5.57;;;5.03;;
55362;SDS011;41244;49.242;9.060;2023-06-10T11:56:26;5.57;;;5.07;;
55362;SDS011;41244;49.242;9.060;2023-06-10T11:58:54;6.28;;;4.63;;
55362;SDS011;41244;49.242;9.060;2023-06-10T12:01:22;5.10;;;4.55;;
55362;SDS011;41244;49.242;9.060;2023-06-10T12:09:05;6.47;;;5.85;;
55362;SDS011;41244;49.242;9.060;2023-06-10T12:11:44;6.10;;;5.43;;
55362;SDS011;41244;49.242;9.060;2023-06-10T12:14:10;5.32;;;4.82;;
55362;SDS011;41244;49.242;9.060;2023-06-10T12:16:36;5.05;;;4.65;;
55362;SDS011;41244;49.242;9.060;2023-06-10T12:19:03;7.13;;;4.95;;
55362;SDS011;41244;49.242;9.060;2023-06-10T12:21:31;4.97;;;4.47;;
55362;SDS011;41244;49.242;9.060;2023-06-10T12:26:39;7.85;;;4.82;;
55362;SDS011;41244;49.242;9.060;2023-06-10T12:29:19;5.85;;;4.50;;
55362;SDS011;41244;49.242;9.060;2023-06-10T12:37:05;4.78;;;4.38;;
55362;SDS011;41244;49.242;9.060;2023-06-10T12:39:38;7.75;;;5.20;;
55362;SDS011;41244;49.242;9.060;2023-06-10T12:42:05;5.97;;;4.63;;
55362;SDS011;41244;49.242;9.060;2023-06-10T12:44:35;4.97;;;4.47;;
55362;SDS011;41244;49.242;9.060;2023-06-10T12:47:07;4.78;;;4.38;;
55362;SDS011;41244;49.242;9.060;2023-06-10T12:49:34;4.72;;;4.20;;
55362;SDS011;41244;49.242;9.060;2023-06-10T12:52:01;4.70;;;4.30;;
55362;SDS011;41244;49.242;9.060;2023-06-10T12:54:28;4.90;;;4.40;;
55362;SDS011;41244;49.242;9.060;2023-06-10T12:56:53;5.20;;;4.70;;
55362;SDS011;41244;49.242;9.060;2023-06-10T12:59:19;6.38;;;5.78;;
55362;SDS011;41244;49.242;9.060;2023-06-10T13:01:49;4.38;;;3.97;;
55362;SDS011;41244;49.242;9.060;2023-06-10T13:04:18;7.28;;;5.38;;
55362;SDS011;41244;49.242;9.060;2023-06-10T13:06:44;5.65;;;5.13;;
55362;SDS011;41244;49.242;9.060;2023-06-10T13:09:12;6.10;;;4.60;;
55362;SDS011;41244;49.242;9.060;2023-06-10T13:11:39;5.38;;;4.07;;
55362;SDS011;41244;49.242;9.060;2023-06-10T13:14:05;5.00;;;4.60;;
55362;SDS011;41244;49.242;9.060;2023-06-10T13:16:31;4.47;;;4.07;;
55362;SDS011;41244;49.242;9.060;2023-06-10T13:18:57;4.50;;;4.10;;
55362;SDS011;41244;49.242;9.060;2023-06-10T13:21:24;4.90;;;4.47;;
55362;SDS011;41244;49.242;9.060;2023-06-10T13:23:50;5.85;;;4.78;;
55362;SDS011;41244;49.242;9.060;2023-06-10T13:26:16;5.43;;;4.60;;
55362;SDS011;41244;49.242;9.060;2023-06-10T13:28:43;6.78;;;4.38;;
55362;SDS011;41244;49.242;9.060;2023-06-10T13:31:09;4.50;;;4.10;;
55362;SDS011;41244;49.242;9.060;2023-06-10T13:33:35;5.72;;;4.13;;
55362;SDS011;41244;49.242;9.060;2023-06-10T13:36:01;4.13;;;3.83;;
55362;SDS011;41244;49.242;9.060;2023-06-10T13:38:26;4.43;;;4.03;;
55362;SDS011;41244;49.242;9.060;2023-06-10T13:40:52;4.82;;;4.00;;
55362;SDS011;41244;49.242;9.060;2023-06-10T13:43:18;5.15;;;4.65;;
55362;SDS011;41244;49.242;9.060;2023-06-10T13:45:43;4.70;;;4.10;;
55362;SDS011;41244;49.242;9.060;2023-06-10T13:48:10;5.50;;;4.32;;
55362;SDS011;41244;49.242;9.060;2023-06-10T13:50:36;4.88;;;4.38;;
55362;SDS011;41244;49.242;9.060;2023-06-10T13:53:03;6.40;;;4.53;;
55362;SDS011;41244;49.242;9.060;2023-06-10T13:55:29;5.10;;;4.68;;
55362;SDS011;41244;49.242;9.060;2023-06-10T13:57:54;6.38;;;4.63;;
55362;SDS011;41244;49.242;9.060;2023-06-10T14:00:20;4.75;;;4.32;;
55362;SDS011;41244;49.242;9.060;2023-06-10T14:02:46;4.63;;;4.22;;
55362;SDS011;41244;49.242;9.060;2023-06-10T14:05:12;4.70;;;4.30;;
55362;SDS011;41244;49.242;9.060;2023-06-10T14:07:38;4.80;;;4.28;;
55362;SDS011;41244;49.242;9.060;2023-06-10T14:10:05;4.70;;;4.30;;
55362;SDS011;41244;49.242;9.060;2023-06-10T14:12:33;4.70;;;4.30;;
55362;SDS011;41244;49.242;9.060;2023-06-10T14:14:59;6.03;;;4.72;;
55362;SDS011;41244;49.242;9.060;2023-06-10T14:17:25;5.72;;;4.30;;
55362;SDS011;41244;49.242;9.060;2023-06-10T14:19:51;5.75;;;4.38;;
55362;SDS011;41244;49.242;9.060;2023-06-10T14:22:17;8.00;;;5.47;;
55362;SDS011;41244;49.242;9.060;2023-06-10T14:24:43;4.90;;;4.40;;
55362;SDS011;41244;49.242;9.060;2023-06-10T14:27:08;5.10;;;4.60;;
55362;SDS011;41244;49.242;9.060;2023-06-10T14:29:34;6.25;;;4.60;;
55362;SDS011;41244;49.242;9.060;2023-06-10T14:32:00;6.15;;;4.40;;
55362;SDS011;41244;49.242;9.060;2023-06-10T14:34:26;8.00;;;4.50;;
55362;SDS011;41244;49.242;9.060;2023-06-10T14:36:54;5.45;;;4.50;;
55362;SDS011;41244;49.242;9.060;2023-06-10T14:39:20;4.40;;;4.00;;
55362;SDS011;41244;49.242;9.060;2023-06-10T14:41:46;4.80;;;4.30;;
55362;SDS011;41244;49.242;9.060;2023-06-10T14:44:12;4.93;;;4.43;;
55362;SDS011;41244;49.242;9.060;2023-06-10T14:46:38;4.57;;;4.18;;
55362;SDS011;41244;49.242;9.060;2023-06-10T14:49:04;5.47;;;4.43;;
55362;SDS011;41244;49.242;9.060;2023-06-10T14:51:30;4.97;;;4.50;;
55362;SDS011;41244;49.242;9.060;2023-06-10T14:53:55;5.85;;;4.85;;
55362;SDS011;41244;49.242;9.060;2023-06-10T14:56:21;4.80;;;4.40;;
55362;SDS011;41244;49.242;9.060;2023-06-10T14:58:47;5.00;;;4.60;;
55362;SDS011;41244;49.242;9.060;2023-06-10T15:01:13;4.88;;;4.45;;
55362;SDS011;41244;49.242;9.060;2023-06-10T15:03:38;5.95;;;4.57;;
55362;SDS011;41244;49.242;9.060;2023-06-10T15:06:04;6.03;;;4.47;;
55362;SDS011;41244;49.242;9.060;2023-06-10T15:08:30;4.88;;;4.47;;
55362;SDS011;41244;49.242;9.060;2023-06-10T15:10:56;5.18;;;4.65;;
55362;SDS011;41244;49.242;9.060;2023-06-10T15:13:22;5.40;;;4.60;;
55362;SDS011;41244;49.242;9.060;2023-06-10T15:15:48;5.55;;;4.38;;
55362;SDS011;41244;49.242;9.060;2023-06-10T15:18:13;5.60;;;4.63;;
55362;SDS011;41244;49.242;9.060;2023-06-10T15:20:39;4.68;;;4.28;;
55362;SDS011;41244;49.242;9.060;2023-06-10T15:23:05;4.80;;;4.13;;